createdAt,value
2023-05-21T00:00:53.806Z,21.15
2023-05-21T00:03:21.147Z,17.02
2023-05-21T00:05:50.124Z,24.20
2023-05-21T00:08:16.908Z,38.43
2023-05-21T00:10:43.440Z,95.60
2023-05-21T00:13:10.486Z,8.57
2023-05-21T00:15:37.604Z,9.13
2023-05-21T00:18:04.400Z,6.80
2023-05-21T00:20:32.419Z,109.13
2023-05-21T00:22:59.797Z,35.58
2023-05-21T00:25:26.272Z,12.50
2023-05-21T00:27:52.724Z,15.15
2023-05-21T00:30:19.308Z,127.53
2023-05-21T00:32:45.876Z,73.72
2023-05-21T00:35:12.755Z,60.05
2023-05-21T00:37:41.217Z,68.40
2023-05-21T00:40:09.170Z,80.68
2023-05-21T00:42:39.934Z,62.40
2023-05-21T00:45:07.921Z,71.47
2023-05-21T00:47:35.200Z,146.73
2023-05-21T00:50:04.612Z,137.52
2023-05-21T00:52:31.404Z,131.93
2023-05-21T00:54:57.988Z,164.73
2023-05-21T00:57:27.245Z,176.47
2023-05-21T00:59:54.069Z,272.17
2023-05-21T01:02:20.747Z,247.15
2023-05-21T01:04:47.342Z,238.57
2023-05-21T01:07:14.558Z,262.38
2023-05-21T01:09:42.452Z,257.15
2023-05-21T01:12:10.892Z,282.80
2023-05-21T01:14:37.991Z,262.52
2023-05-21T01:17:06.431Z,253.87
2023-05-21T01:19:35.482Z,274.05
2023-05-21T01:22:14.277Z,209.68
2023-05-21T01:24:41.484Z,255.50
2023-05-21T01:27:10.465Z,268.73
2023-05-21T01:29:37.039Z,361.20
2023-05-21T01:32:49.039Z,222.05
2023-05-21T01:35:22.559Z,166.48
2023-05-21T01:37:55.841Z,206.98
2023-05-21T01:40:35.818Z,204.60
2023-05-21T01:43:05.733Z,226.48
2023-05-21T01:45:33.428Z,219.02
2023-05-21T01:48:00.552Z,16.98
2023-05-21T01:50:27.735Z,277.98
2023-05-21T01:53:00.989Z,111.10
2023-05-21T01:55:28.184Z,26.95
2023-05-21T01:57:55.783Z,148.45
2023-05-21T02:00:24.592Z,108.25
2023-05-21T02:02:51.858Z,91.18
2023-05-21T02:05:18.720Z,84.75
2023-05-21T02:07:46.135Z,76.53
2023-05-21T02:10:12.878Z,84.72
2023-05-21T02:12:39.676Z,128.60
2023-05-21T02:15:06.799Z,159.30
2023-05-21T02:17:34.224Z,176.38
2023-05-21T02:20:13.580Z,130.65
2023-05-21T02:22:47.970Z,106.93
2023-05-21T02:25:18.329Z,166.52
2023-05-21T02:27:46.579Z,105.65
2023-05-21T02:30:15.152Z,144.90
2023-05-21T02:32:43.262Z,142.82
2023-05-21T02:35:11.787Z,72.25
2023-05-21T02:37:40.509Z,104.13
2023-05-21T02:40:09.806Z,97.15
2023-05-21T02:42:39.494Z,129.50
2023-05-21T02:45:11.306Z,149.57
2023-05-21T02:47:40.999Z,102.40
2023-05-21T02:50:09.057Z,187.80
2023-05-21T02:52:35.670Z,115.47
2023-05-21T02:55:02.204Z,101.35
2023-05-21T02:57:28.676Z,119.95
2023-05-21T02:59:55.172Z,120.30
2023-05-21T03:02:21.733Z,119.90
2023-05-21T03:04:48.847Z,127.88
2023-05-21T03:07:19.139Z,211.10
2023-05-21T03:09:46.509Z,77.95
2023-05-21T03:12:13.106Z,80.57
2023-05-21T03:14:39.636Z,83.38
2023-05-21T03:17:06.460Z,78.60
2023-05-21T03:19:36.764Z,77.32
2023-05-21T03:22:04.563Z,88.22
2023-05-21T03:24:31.808Z,98.75
2023-05-21T03:27:01.508Z,104.88
2023-05-21T03:29:28.710Z,80.40
2023-05-21T03:31:55.820Z,102.10
2023-05-21T03:34:22.440Z,91.90
2023-05-21T03:36:49.573Z,123.70
2023-05-21T03:39:16.326Z,137.68
2023-05-21T03:41:43.318Z,129.77
2023-05-21T03:44:09.868Z,138.95
2023-05-21T03:46:36.481Z,145.43
2023-05-21T03:49:03.186Z,111.43
2023-05-21T03:51:31.721Z,150.45
2023-05-21T03:53:59.170Z,292.05
2023-05-21T03:56:26.256Z,212.70
2023-05-21T03:58:53.000Z,167.00
2023-05-21T04:01:19.597Z,178.87
2023-05-21T04:03:46.372Z,194.00
2023-05-21T04:06:13.028Z,209.15
2023-05-21T04:08:39.686Z,217.57
2023-05-21T04:11:06.228Z,171.27
2023-05-21T04:13:32.694Z,181.32
2023-05-21T04:15:59.756Z,174.65
2023-05-21T04:18:26.758Z,176.68
2023-05-21T04:20:53.920Z,152.10
2023-05-21T04:23:23.499Z,129.80
2023-05-21T04:25:50.919Z,133.23
2023-05-21T04:28:21.096Z,135.93
2023-05-21T04:30:47.904Z,183.60
2023-05-21T04:33:17.824Z,143.52
2023-05-21T04:35:46.259Z,169.48
2023-05-21T04:38:12.760Z,171.40
2023-05-21T04:40:40.647Z,139.33
2023-05-21T04:43:08.096Z,137.57
2023-05-21T04:45:34.700Z,128.65
2023-05-21T04:48:01.458Z,128.00
2023-05-21T04:50:30.664Z,121.38
2023-05-21T04:52:58.825Z,111.72
2023-05-21T04:55:25.945Z,115.80
2023-05-21T04:57:53.017Z,119.72
2023-05-21T05:00:20.328Z,129.30
2023-05-21T05:02:46.889Z,119.32
2023-05-21T05:05:13.457Z,142.18
2023-05-21T05:07:40.081Z,184.23
2023-05-21T05:10:15.703Z,189.57
2023-05-21T05:12:42.280Z,197.73
2023-05-21T05:15:09.193Z,119.72
2023-05-21T05:17:35.684Z,186.70
2023-05-21T05:20:02.265Z,220.40
2023-05-21T05:22:28.845Z,167.07
2023-05-21T05:24:55.336Z,173.07
2023-05-21T05:27:21.878Z,154.77
2023-05-21T05:29:48.380Z,179.80
2023-05-21T05:32:14.935Z,173.18
2023-05-21T05:34:42.744Z,196.93
2023-05-21T05:37:09.208Z,195.27
2023-05-21T05:39:35.819Z,429.95
2023-05-21T05:42:11.391Z,244.18
2023-05-21T05:44:37.908Z,147.55
2023-05-21T05:47:09.079Z,252.87
2023-05-21T05:49:36.036Z,273.75
2023-05-21T05:52:02.840Z,246.93
2023-05-21T05:54:29.303Z,241.73
2023-05-21T05:56:55.962Z,297.85
2023-05-21T05:59:22.489Z,160.27
2023-05-21T06:01:49.034Z,187.20
2023-05-21T06:04:15.499Z,156.48
2023-05-21T06:06:42.149Z,212.52
2023-05-21T06:09:08.697Z,335.45
2023-05-21T06:11:35.269Z,295.85
2023-05-21T06:14:04.228Z,11.90
2023-05-21T06:16:48.984Z,28.13
2023-05-21T06:19:15.658Z,54.17
2023-05-21T06:21:42.197Z,280.00
2023-05-21T06:24:08.745Z,294.25
2023-05-21T06:26:35.434Z,265.80
2023-05-21T06:29:03.764Z,215.60
2023-05-21T06:31:36.514Z,231.45
2023-05-21T06:34:04.039Z,196.27
2023-05-21T06:36:32.385Z,435.38
2023-05-21T06:39:06.632Z,173.95
2023-05-21T06:41:33.381Z,55.85
2023-05-21T06:43:59.856Z,94.40
2023-05-21T06:46:26.412Z,122.77
2023-05-21T06:48:53.094Z,121.63
2023-05-21T06:51:19.583Z,120.47
2023-05-21T06:53:46.189Z,59.75
2023-05-21T06:56:13.128Z,49.17
2023-05-21T06:58:39.680Z,51.60
2023-05-21T07:01:12.514Z,54.33
2023-05-21T07:03:39.136Z,69.38
2023-05-21T07:06:06.544Z,93.67
2023-05-21T07:08:33.578Z,116.67
2023-05-21T07:11:00.226Z,71.03
2023-05-21T07:13:26.661Z,142.45
2023-05-21T07:15:53.796Z,201.13
2023-05-21T07:18:21.228Z,228.93
2023-05-21T07:20:47.897Z,256.95
2023-05-21T07:23:14.611Z,190.88
2023-05-21T07:25:41.052Z,255.27
2023-05-21T07:28:07.588Z,275.30
2023-05-21T07:30:34.187Z,257.77
2023-05-21T07:33:00.925Z,193.85
2023-05-21T07:35:27.537Z,163.00
2023-05-21T07:37:56.715Z,143.32
2023-05-21T07:40:27.463Z,199.80
2023-05-21T07:43:01.768Z,209.82
2023-05-21T07:45:37.416Z,127.22
2023-05-21T07:48:04.590Z,126.80
2023-05-21T07:50:45.755Z,92.00
2023-05-21T07:53:21.499Z,105.30
2023-05-21T07:56:13.283Z,118.43
2023-05-21T07:59:09.445Z,107.75
2023-05-21T08:01:43.259Z,141.13
2023-05-21T08:04:15.937Z,203.98
2023-05-21T08:06:42.853Z,180.50
2023-05-21T08:09:09.576Z,156.10
2023-05-21T08:11:36.419Z,120.22
2023-05-21T08:14:03.300Z,185.95
2023-05-21T08:16:30.196Z,100.67
2023-05-21T08:18:57.072Z,95.55
2023-05-21T08:21:24.019Z,98.40
2023-05-21T08:23:53.327Z,166.70
2023-05-21T08:26:20.155Z,148.48
2023-05-21T08:28:46.987Z,177.27
2023-05-21T08:31:13.806Z,155.05
2023-05-21T08:33:40.389Z,189.00
2023-05-21T08:36:07.668Z,78.78
2023-05-21T08:38:34.663Z,85.03
2023-05-21T08:41:01.252Z,10.65
2023-05-21T08:43:28.656Z,27.65
2023-05-21T08:45:59.061Z,110.07
2023-05-21T08:48:25.872Z,99.50
2023-05-21T08:50:54.556Z,113.22
2023-05-21T08:53:28.178Z,134.68
2023-05-21T08:55:57.177Z,250.48
2023-05-21T08:58:24.327Z,254.10
2023-05-21T09:00:51.097Z,278.15
2023-05-21T09:03:17.828Z,327.77
2023-05-21T09:05:45.959Z,479.17
2023-05-21T09:08:21.773Z,386.50
2023-05-21T09:10:50.601Z,339.00
2023-05-21T09:13:18.198Z,377.02
2023-05-21T09:15:48.766Z,450.40
2023-05-21T09:18:15.305Z,490.20
2023-05-21T09:20:41.883Z,400.70
2023-05-21T09:23:16.460Z,49.50
2023-05-21T09:25:48.206Z,37.70
2023-05-21T09:28:16.327Z,37.08
2023-05-21T09:30:53.617Z,13.67
2023-05-21T09:33:27.289Z,62.97
2023-05-21T09:35:53.913Z,12.93
2023-05-21T09:38:23.625Z,12.40
2023-05-21T09:40:50.206Z,13.13
2023-05-21T09:43:17.222Z,13.40
2023-05-21T09:45:55.305Z,344.63
2023-05-21T09:48:42.128Z,223.38
2023-05-21T09:51:10.190Z,15.75
2023-05-21T09:53:37.140Z,12.05
2023-05-21T09:56:05.404Z,12.23
2023-05-21T09:58:32.377Z,46.65
2023-05-21T10:00:59.017Z,68.55
2023-05-21T10:03:28.646Z,12.20
2023-05-21T10:05:56.775Z,12.75
2023-05-21T10:08:26.892Z,11.48
2023-05-21T10:10:53.945Z,12.52
2023-05-21T10:13:23.529Z,12.60
2023-05-21T10:15:55.776Z,11.37
2023-05-21T10:18:23.543Z,11.63
2023-05-21T10:20:51.268Z,14.27
2023-05-21T10:23:18.789Z,11.18
2023-05-21T10:25:46.123Z,12.25
2023-05-21T10:28:17.135Z,13.85
2023-05-21T10:30:44.472Z,13.85
2023-05-21T10:33:16.285Z,11.45
2023-05-21T10:35:44.923Z,13.07
2023-05-21T10:38:13.639Z,10.18
2023-05-21T10:40:40.435Z,11.73
2023-05-21T10:43:26.571Z,10.27
2023-05-21T10:46:17.741Z,38.53
2023-05-21T10:49:02.520Z,21.83
2023-05-21T10:51:42.549Z,359.42
2023-05-21T10:54:18.296Z,314.20
2023-05-21T10:57:09.872Z,10.83
2023-05-21T10:59:42.264Z,11.98
2023-05-21T11:02:11.411Z,11.15
2023-05-21T11:04:40.189Z,10.63
2023-05-21T11:07:06.737Z,12.13
2023-05-21T11:09:33.297Z,10.13
2023-05-21T11:12:00.999Z,13.38
2023-05-21T11:14:32.587Z,10.63
2023-05-21T11:17:02.369Z,11.15
2023-05-21T11:19:43.508Z,10.95
2023-05-21T11:22:11.363Z,10.10
2023-05-21T11:24:40.591Z,10.50
2023-05-21T11:27:07.327Z,10.93
2023-05-21T11:29:42.287Z,11.37
2023-05-21T11:32:10.381Z,10.35
2023-05-21T11:34:47.069Z,9.85
2023-05-21T11:37:22.505Z,9.52
2023-05-21T11:39:50.503Z,10.13
2023-05-21T11:42:28.862Z,10.55
2023-05-21T11:44:59.090Z,10.75
2023-05-21T11:47:27.126Z,10.13
2023-05-21T11:49:54.206Z,10.13
2023-05-21T11:52:21.339Z,9.05
2023-05-21T11:54:51.170Z,8.70
2023-05-21T11:57:19.403Z,11.30
2023-05-21T11:59:46.608Z,10.38
2023-05-21T12:02:17.361Z,9.83
2023-05-21T12:04:45.638Z,10.05
2023-05-21T12:07:15.893Z,10.10
2023-05-21T12:09:51.977Z,8.88
2023-05-21T12:12:35.356Z,10.45
2023-05-21T12:15:10.211Z,12.25
2023-05-21T12:17:36.844Z,10.35
2023-05-21T12:20:07.351Z,10.75
2023-05-21T12:22:33.936Z,10.55
2023-05-21T12:25:01.074Z,10.25
2023-05-21T12:27:28.247Z,10.70
2023-05-21T12:29:55.067Z,9.93
2023-05-21T12:32:22.112Z,9.65
2023-05-21T12:34:54.594Z,8.70
2023-05-21T12:37:27.133Z,10.02
2023-05-21T12:39:55.905Z,8.30
2023-05-21T12:42:30.639Z,9.57
2023-05-21T12:44:58.242Z,9.38
2023-05-21T12:47:26.542Z,9.85
2023-05-21T12:50:00.682Z,9.23
2023-05-21T12:52:27.854Z,8.77
2023-05-21T12:54:58.913Z,8.32
2023-05-21T12:57:28.214Z,9.50
2023-05-21T12:59:59.511Z,8.98
2023-05-21T13:02:32.453Z,9.18
2023-05-21T13:05:01.165Z,8.55
2023-05-21T13:07:29.538Z,10.07
2023-05-21T13:09:56.321Z,8.52
2023-05-21T13:12:27.260Z,8.88
2023-05-21T13:14:55.877Z,9.20
2023-05-21T13:17:23.541Z,9.80
2023-05-21T13:20:12.512Z,10.57
2023-05-21T13:22:57.259Z,9.97
2023-05-21T13:25:28.772Z,9.18
2023-05-21T13:27:56.167Z,8.25
2023-05-21T13:30:22.769Z,8.90
2023-05-21T13:32:49.407Z,8.25
2023-05-21T13:35:16.610Z,9.88
2023-05-21T13:37:43.782Z,9.20
2023-05-21T13:40:14.489Z,9.70
2023-05-21T13:42:41.670Z,9.88
2023-05-21T13:45:10.577Z,9.38
2023-05-21T13:47:39.929Z,8.73
2023-05-21T13:50:08.377Z,8.73
2023-05-21T13:52:35.052Z,8.60
2023-05-21T13:55:01.567Z,8.82
2023-05-21T13:57:30.704Z,8.05
2023-05-21T13:59:58.083Z,9.45
2023-05-21T14:02:24.664Z,9.03
2023-05-21T14:04:51.266Z,8.68
2023-05-21T14:07:17.944Z,10.25
2023-05-21T14:09:44.474Z,8.35
2023-05-21T14:12:10.988Z,8.47
2023-05-21T14:14:37.987Z,10.85
2023-05-21T14:17:04.679Z,8.57
2023-05-21T14:19:31.794Z,10.10
2023-05-21T14:21:59.845Z,8.80
2023-05-21T14:24:26.467Z,9.15
2023-05-21T14:26:53.010Z,9.53
2023-05-21T14:29:19.474Z,10.52
2023-05-21T14:31:46.441Z,9.23
2023-05-21T14:34:12.989Z,8.75
2023-05-21T14:36:39.600Z,10.50
2023-05-21T14:39:06.260Z,9.98
2023-05-21T14:41:32.826Z,8.98
2023-05-21T14:43:59.399Z,10.07
2023-05-21T14:46:26.140Z,9.15
2023-05-21T14:48:52.837Z,10.25
2023-05-21T14:51:19.407Z,8.48
2023-05-21T14:53:45.911Z,8.82
2023-05-21T14:56:12.596Z,11.70
2023-05-21T14:58:39.334Z,9.98
2023-05-21T15:01:05.986Z,12.40
2023-05-21T15:03:32.801Z,12.07
2023-05-21T15:05:59.580Z,10.05
2023-05-21T15:08:26.230Z,10.87
2023-05-21T15:10:52.851Z,10.75
2023-05-21T15:13:21.325Z,10.27
2023-05-21T15:15:49.674Z,13.13
2023-05-21T15:18:16.394Z,13.33
2023-05-21T15:20:43.004Z,10.50
2023-05-21T15:23:16.676Z,11.20
2023-05-21T15:25:44.492Z,11.38
2023-05-21T15:28:12.203Z,10.73
2023-05-21T15:30:39.064Z,12.20
2023-05-21T15:33:05.836Z,11.02
2023-05-21T15:35:37.742Z,11.85
2023-05-21T15:38:04.720Z,9.80
2023-05-21T15:40:32.011Z,12.07
2023-05-21T15:42:58.554Z,29.50
2023-05-21T15:45:25.288Z,15.32
2023-05-21T15:47:51.941Z,13.95
2023-05-21T15:50:18.594Z,12.10
2023-05-21T15:52:45.262Z,10.25
2023-05-21T15:55:12.107Z,10.68
2023-05-21T15:57:38.631Z,10.23
2023-05-21T16:00:06.421Z,11.27
2023-05-21T16:02:37.734Z,18.45
2023-05-21T16:05:04.708Z,18.33
2023-05-21T16:07:31.239Z,11.03
2023-05-21T16:09:57.887Z,15.10
2023-05-21T16:12:26.576Z,11.23
2023-05-21T16:14:53.286Z,12.85
2023-05-21T16:17:19.969Z,12.50
2023-05-21T16:19:47.429Z,11.70
2023-05-21T16:22:14.334Z,12.50
2023-05-21T16:24:40.897Z,11.98
2023-05-21T16:27:07.412Z,10.85
2023-05-21T16:29:33.874Z,12.52
2023-05-21T16:32:02.562Z,15.25
2023-05-21T16:34:29.230Z,14.90
2023-05-21T16:36:55.832Z,14.82
2023-05-21T16:39:22.449Z,13.45
2023-05-21T16:41:48.959Z,16.27
2023-05-21T16:44:15.458Z,14.20
2023-05-21T16:46:42.446Z,13.20
2023-05-21T16:49:08.928Z,12.25
2023-05-21T16:51:35.408Z,11.05
2023-05-21T16:54:04.493Z,11.43
2023-05-21T16:56:31.318Z,10.70
2023-05-21T16:58:57.836Z,12.07
2023-05-21T17:01:24.410Z,11.20
2023-05-21T17:03:51.205Z,13.82
2023-05-21T17:06:17.985Z,13.38
2023-05-21T17:08:44.463Z,13.10
2023-05-21T17:11:11.130Z,13.00
2023-05-21T17:13:37.613Z,12.75
2023-05-21T17:16:04.444Z,13.15
2023-05-21T17:18:31.341Z,13.10
2023-05-21T17:20:59.098Z,13.82
2023-05-21T17:23:25.645Z,13.07
2023-05-21T17:25:52.560Z,12.25
2023-05-21T17:28:21.237Z,12.07
2023-05-21T17:30:49.677Z,12.57
2023-05-21T17:33:16.817Z,11.85
2023-05-21T17:35:43.511Z,12.15
2023-05-21T17:38:10.328Z,12.32
2023-05-21T17:40:36.880Z,11.43
2023-05-21T17:43:04.573Z,11.75
2023-05-21T17:45:31.070Z,11.30
2023-05-21T17:47:59.985Z,11.82
2023-05-21T17:50:27.127Z,11.25
2023-05-21T17:52:53.621Z,11.38
2023-05-21T17:55:20.432Z,11.23
2023-05-21T17:57:46.874Z,12.90
2023-05-21T18:00:13.603Z,11.48
2023-05-21T18:02:40.105Z,11.57
2023-05-21T18:05:06.822Z,12.68
2023-05-21T18:07:33.265Z,12.07
2023-05-21T18:09:59.833Z,12.15
2023-05-21T18:12:26.327Z,12.13
2023-05-21T18:14:52.863Z,11.70
2023-05-21T18:17:19.338Z,11.73
2023-05-21T18:19:45.810Z,11.67
2023-05-21T18:22:12.347Z,11.55
2023-05-21T18:24:39.772Z,11.45
2023-05-21T18:27:06.656Z,11.95
2023-05-21T18:29:33.221Z,12.07
2023-05-21T18:31:59.816Z,11.15
2023-05-21T18:34:26.338Z,12.25
2023-05-21T18:36:54.545Z,11.90
2023-05-21T18:39:24.602Z,12.32
2023-05-21T18:41:55.770Z,13.13
2023-05-21T18:44:29.648Z,12.80
2023-05-21T18:46:57.695Z,12.52
2023-05-21T18:49:24.616Z,14.50
2023-05-21T18:51:51.278Z,12.70
2023-05-21T18:54:17.808Z,13.87
2023-05-21T18:56:44.327Z,12.63
2023-05-21T18:59:11.074Z,14.38
2023-05-21T19:01:38.035Z,13.17
2023-05-21T19:04:05.257Z,13.73
2023-05-21T19:06:31.975Z,13.48
2023-05-21T19:08:58.730Z,14.13
2023-05-21T19:11:31.155Z,13.80
2023-05-21T19:13:58.995Z,14.30
2023-05-21T19:16:25.888Z,13.32
2023-05-21T19:18:52.789Z,13.52
2023-05-21T19:21:19.470Z,13.37
2023-05-21T19:23:53.176Z,13.90
2023-05-21T19:26:22.273Z,13.80
2023-05-21T19:28:52.967Z,13.32
2023-05-21T19:31:20.585Z,13.27
2023-05-21T19:33:47.273Z,13.52
2023-05-21T19:36:14.403Z,13.00
2023-05-21T19:38:51.388Z,12.30
2023-05-21T19:41:18.876Z,13.35
2023-05-21T19:43:48.980Z,13.85
2023-05-21T19:46:19.044Z,12.75
2023-05-21T19:48:46.889Z,12.95
2023-05-21T19:51:19.437Z,12.73
2023-05-21T19:53:53.499Z,14.50
2023-05-21T19:56:20.128Z,16.10
2023-05-21T19:58:47.951Z,13.18
2023-05-21T20:01:17.702Z,13.33
2023-05-21T20:03:45.556Z,14.15
2023-05-21T20:06:15.536Z,13.40
2023-05-21T20:08:44.579Z,15.25
2023-05-21T20:11:11.169Z,13.65
2023-05-21T20:13:37.747Z,13.98
2023-05-21T20:16:04.760Z,13.73
2023-05-21T20:18:31.450Z,14.40
2023-05-21T20:20:57.997Z,14.13
2023-05-21T20:23:24.663Z,14.27
2023-05-21T20:25:51.187Z,14.65
2023-05-21T20:28:19.777Z,14.27
2023-05-21T20:31:04.671Z,14.57
2023-05-21T20:33:33.047Z,15.13
2023-05-21T20:36:00.439Z,16.70
2023-05-21T20:38:27.415Z,18.80
2023-05-21T20:40:55.148Z,19.00
2023-05-21T20:43:21.736Z,15.87
2023-05-21T20:45:49.888Z,16.33
2023-05-21T20:48:16.806Z,17.07
2023-05-21T20:50:48.874Z,18.55
2023-05-21T20:53:15.856Z,19.35
2023-05-21T20:55:44.374Z,20.10
2023-05-21T20:58:11.673Z,19.83
2023-05-21T21:00:41.877Z,17.83
2023-05-21T21:03:11.428Z,19.08
2023-05-21T21:05:38.796Z,20.17
2023-05-21T21:08:06.056Z,17.65
2023-05-21T21:10:33.160Z,17.65
2023-05-21T21:12:59.644Z,16.67
2023-05-21T21:15:26.213Z,15.38
2023-05-21T21:17:52.951Z,17.17
2023-05-21T21:20:19.497Z,14.57
2023-05-21T21:22:46.518Z,17.38
2023-05-21T21:25:16.194Z,15.70
2023-05-21T21:27:43.304Z,15.38
2023-05-21T21:30:10.254Z,15.15
2023-05-21T21:32:36.918Z,15.85
2023-05-21T21:35:03.537Z,14.82
2023-05-21T21:37:30.139Z,14.82
2023-05-21T21:39:56.727Z,15.43
2023-05-21T21:42:23.358Z,15.80
2023-05-21T21:44:49.933Z,15.18
2023-05-21T21:47:16.426Z,13.98
2023-05-21T21:49:42.919Z,15.25
2023-05-21T21:52:10.796Z,14.38
2023-05-21T21:54:37.295Z,14.88
2023-05-21T21:57:03.818Z,14.63
2023-05-21T21:59:30.564Z,14.10
2023-05-21T22:01:57.251Z,15.15
2023-05-21T22:04:23.798Z,14.50
2023-05-21T22:06:50.258Z,15.38
2023-05-21T22:09:17.535Z,14.55
2023-05-21T22:12:04.354Z,15.80
2023-05-21T22:14:31.098Z,19.87
2023-05-21T22:16:57.923Z,15.40
2023-05-21T22:19:32.940Z,16.60
2023-05-21T22:22:17.954Z,13.90
2023-05-21T22:24:44.434Z,11.43
2023-05-21T22:27:11.266Z,13.73
2023-05-21T22:29:37.842Z,12.73
2023-05-21T22:32:04.998Z,12.93
2023-05-21T22:34:31.492Z,12.57
2023-05-21T22:36:58.094Z,13.52
2023-05-21T22:39:24.588Z,13.38
2023-05-21T22:41:51.192Z,13.00
2023-05-21T22:44:17.811Z,13.90
2023-05-21T22:49:41.023Z,15.30
2023-05-21T22:52:09.413Z,14.80
2023-05-21T22:54:36.349Z,15.40
2023-05-21T22:57:06.142Z,17.70
2023-05-21T22:59:34.509Z,15.75
2023-05-21T23:02:01.330Z,16.58
2023-05-21T23:04:43.126Z,16.42
2023-05-21T23:07:10.746Z,17.33
2023-05-21T23:09:37.361Z,13.18
2023-05-21T23:12:10.539Z,11.75
2023-05-21T23:14:37.226Z,13.23
2023-05-21T23:17:04.656Z,13.73
2023-05-21T23:19:32.872Z,14.25
2023-05-21T23:22:00.325Z,14.15
2023-05-21T23:24:26.903Z,13.35
2023-05-21T23:26:56.599Z,12.48
2023-05-21T23:29:24.674Z,14.55
2023-05-21T23:31:54.761Z,14.70
2023-05-21T23:34:25.954Z,14.23
2023-05-21T23:36:53.899Z,16.95
2023-05-21T23:39:24.247Z,16.88
2023-05-21T23:41:53.691Z,14.45
2023-05-21T23:44:21.445Z,15.35
2023-05-21T23:46:51.806Z,19.02
2023-05-21T23:49:27.399Z,17.00
2023-05-21T23:51:55.191Z,17.15
2023-05-21T23:54:23.429Z,19.52
2023-05-21T23:56:52.643Z,18.67
2023-05-21T23:59:28.827Z,18.17
